A- A+ FrançaisEnglishEspañol中国

最近的 LFBT Tarbes-Lourdes-PyrénéesLECU Madrid Cuatro VientosLEGT Madrid-Getafe MNMG ManaguaDBBB CotonouKUES Waukesha Co

飞行员的航空天气,使用METAR(气象机场报告)进行的飞行准备和TAF(终端机场预报:针对以下情况的短期天气预报)航空)。 以及其他资源,例如VAC(目视进近图)和NOTAM(通知飞行员)以进行预试飞行.

METAR, TAF, VAC, NOTAM Metabaru机场 (Japon) / OACI RJDM

它位于附近 , Kanzaki 在 5.2 km, Kurume 在 9.6 km, Tosu 在 11 km, Saga-shi 在 14 km, Okawa 在 15 km, Hainuzuka 在 16 km, Yanagawa 在 18 km, Setaka 在 20 km, Ogi 在 20 km, Tachiarai 在 21 km,

机场的高度为 Metabaru机场的

15 m = 49 ft

附近的机场Metabaru机场的

目前的天气 Metabaru机场的 - RJDM

quelques nuages
24°C

Vent 4 km/h

可提供5天天气预报 Kanzaki 在 5.2 km, Kurume 在 9.6 km, Tosu 在 11 km, Saga-shi 在 14 km, Okawa 在 15 km, Hainuzuka 在 16 km, Yanagawa 在 18 km, Setaka 在 20 km, Ogi 在 20 km, Tachiarai 在 21 km,

METAR Metabaru机场的 - RJDM

RJDM 152236Z 13003KT 9999 -SHRA FEW010 SCT020 BKN025 06/03 Q1020 RMK 1CU010 3CU020 6CU025 A3012

Metabaru机场METAR解码 (Japon)

RJDM机场发行的METAR日期2020年03月15日至22:36 GMT, 警告:此METAR已过期, 已于 193 天 20 小时 45 分钟.

可见度为大于 10 km = 大于6.2 sm.

温度为6°C = 43 °F 露点为3°C = 37 °F 。 这相当于81%的相对湿度。.

QNH是1020 hPa = 30.12 inHg

的风3 kt = 6 km/h, 风向为130°.

云:处少云1000 ft = 300 m. 距离2000 ft = 610 m. 距云2500 ft = 760 m.

光阵雨

备注 1CU010 3CU020 6CU025 A3012

TAF Metabaru机场的 - RJDM

没有TAF

Metabaru机场的NOTAM

提供的NOTAM不能保证其时事性。 在将其用于飞行准备或在飞行期间使用之前,飞行员是唯一负责验证其有效性的人员。

没有通知

数据源